createdAt,value
2022-12-18T00:01:18.545Z,29.55
2022-12-18T00:03:46.303Z,31.35
2022-12-18T00:06:15.505Z,27.73
2022-12-18T00:08:42.970Z,27.88
2022-12-18T00:11:12.769Z,26.80
2022-12-18T00:13:39.923Z,26.38
2022-12-18T00:16:10.700Z,27.73
2022-12-18T00:18:37.596Z,25.42
2022-12-18T00:21:06.823Z,25.38
2022-12-18T00:23:35.747Z,26.45
2022-12-18T00:26:06.151Z,26.60
2022-12-18T00:28:33.442Z,24.70
2022-12-18T00:31:11.730Z,26.30
2022-12-18T00:33:39.130Z,25.50
2022-12-18T00:36:27.278Z,25.52
2022-12-18T00:38:58.454Z,24.17
2022-12-18T00:41:44.065Z,25.40
2022-12-18T00:44:13.503Z,24.45
2022-12-18T00:46:40.533Z,24.27
2022-12-18T00:49:07.537Z,25.05
2022-12-18T00:51:34.135Z,24.52
2022-12-18T00:54:01.486Z,23.15
2022-12-18T00:56:27.992Z,23.80
2022-12-18T00:58:54.827Z,24.35
2022-12-18T01:01:21.524Z,23.75
2022-12-18T01:03:48.478Z,23.95
2022-12-18T01:06:17.562Z,24.23
2022-12-18T01:08:45.286Z,23.77
2022-12-18T01:11:16.332Z,24.42
2022-12-18T01:13:43.476Z,23.73
2022-12-18T01:16:12.865Z,24.83
2022-12-18T01:18:39.782Z,25.40
2022-12-18T01:21:08.482Z,25.45
2022-12-18T01:23:37.689Z,24.95
2022-12-18T01:26:13.711Z,24.13
2022-12-18T01:28:40.983Z,21.67
2022-12-18T01:31:28.148Z,25.45
2022-12-18T01:33:55.438Z,24.30
2022-12-18T01:36:23.557Z,25.10
2022-12-18T01:38:51.200Z,22.45
2022-12-18T01:41:25.076Z,25.08
2022-12-18T01:43:58.199Z,25.30
2022-12-18T01:46:26.508Z,24.27
2022-12-18T01:49:01.739Z,25.00
2022-12-18T01:51:30.513Z,24.42
2022-12-18T01:54:00.056Z,25.08
2022-12-18T01:56:26.757Z,26.67
2022-12-18T01:59:03.275Z,25.23
2022-12-18T02:01:31.960Z,26.08
2022-12-18T02:04:24.208Z,26.75
2022-12-18T02:07:12.033Z,24.42
2022-12-18T02:09:48.653Z,25.70
2022-12-18T02:12:24.834Z,24.48
2022-12-18T02:15:09.498Z,24.98
2022-12-18T02:17:48.736Z,24.98
2022-12-18T02:20:19.256Z,26.83
2022-12-18T02:23:02.060Z,23.38
2022-12-18T02:26:03.152Z,23.25
2022-12-18T02:28:35.570Z,23.30
2022-12-18T02:31:11.230Z,22.10
2022-12-18T02:33:40.291Z,22.95
2022-12-18T02:36:08.889Z,22.52
2022-12-18T02:38:36.178Z,24.10
2022-12-18T02:41:11.357Z,23.70
2022-12-18T02:43:39.340Z,24.20
2022-12-18T02:46:47.444Z,23.05
2022-12-18T02:49:31.409Z,22.80
2022-12-18T02:54:42.144Z,21.67
2022-12-18T02:57:19.253Z,20.58
2022-12-18T03:00:12.939Z,21.98
2022-12-18T03:02:47.620Z,21.52
2022-12-18T03:05:22.048Z,21.17
2022-12-18T03:07:51.833Z,20.05
2022-12-18T03:10:25.926Z,20.52
2022-12-18T03:12:57.936Z,21.02
2022-12-18T03:15:31.428Z,21.10
2022-12-18T03:18:14.081Z,19.95
2022-12-18T03:20:45.058Z,20.48
2022-12-18T03:25:50.411Z,18.90
2022-12-18T03:28:21.313Z,17.90
2022-12-18T03:30:57.552Z,19.58
2022-12-18T03:33:33.087Z,19.20
2022-12-18T03:35:59.694Z,17.65
2022-12-18T03:38:26.336Z,18.35
2022-12-18T03:41:25.093Z,19.33
2022-12-18T03:44:16.818Z,18.63
2022-12-18T03:47:10.708Z,18.73
2022-12-18T03:49:47.189Z,20.02
2022-12-18T03:52:39.287Z,20.30
2022-12-18T03:55:09.405Z,18.70
2022-12-18T03:57:36.976Z,18.95
2022-12-18T04:00:13.735Z,19.05
2022-12-18T04:02:57.988Z,19.05
2022-12-18T04:05:34.972Z,18.25
2022-12-18T04:08:03.056Z,19.77
2022-12-18T04:10:31.175Z,19.85
2022-12-18T04:12:59.769Z,18.70
2022-12-18T04:15:27.116Z,20.70
2022-12-18T04:17:53.754Z,19.95
2022-12-18T04:20:23.714Z,20.95
2022-12-18T04:22:50.272Z,20.75
2022-12-18T04:25:19.349Z,20.17
2022-12-18T04:28:05.356Z,20.92
2022-12-18T04:30:32.637Z,20.73
2022-12-18T04:32:59.423Z,20.65
2022-12-18T04:35:26.427Z,20.85
2022-12-18T04:37:52.961Z,21.02
2022-12-18T04:40:20.211Z,19.98
2022-12-18T04:42:48.810Z,21.38
2022-12-18T04:45:15.482Z,20.73
2022-12-18T04:47:42.004Z,20.85
2022-12-18T04:50:08.823Z,20.33
2022-12-18T04:52:35.400Z,20.42
2022-12-18T04:55:01.959Z,21.98
2022-12-18T04:57:28.592Z,21.80
2022-12-18T04:59:55.102Z,20.75
2022-12-18T05:02:21.740Z,20.92
2022-12-18T05:04:48.290Z,21.15
2022-12-18T05:07:14.831Z,20.95
2022-12-18T05:09:41.399Z,21.20
2022-12-18T05:12:08.336Z,20.05
2022-12-18T05:14:34.908Z,19.73
2022-12-18T05:17:01.534Z,20.85
2022-12-18T05:19:28.074Z,20.90
2022-12-18T05:21:54.623Z,19.65
2022-12-18T05:24:21.221Z,20.55
2022-12-18T05:26:47.721Z,19.58
2022-12-18T05:29:14.337Z,20.60
2022-12-18T05:31:41.639Z,20.02
2022-12-18T05:34:09.686Z,19.65
2022-12-18T05:36:37.687Z,20.63
2022-12-18T05:39:05.341Z,21.30
2022-12-18T05:41:32.670Z,19.83
2022-12-18T05:43:59.503Z,19.73
2022-12-18T05:46:26.840Z,20.70
2022-12-18T05:48:53.530Z,20.70
2022-12-18T05:51:22.733Z,20.15
2022-12-18T05:53:49.313Z,19.48
2022-12-18T05:56:20.278Z,20.77
2022-12-18T05:58:47.599Z,20.50
2022-12-18T06:01:24.170Z,19.23
2022-12-18T06:03:50.864Z,20.00
2022-12-18T06:06:20.462Z,18.98
2022-12-18T06:08:47.485Z,18.40
2022-12-18T06:11:14.568Z,19.30
2022-12-18T06:13:41.341Z,19.88
2022-12-18T06:16:09.181Z,20.50
2022-12-18T06:18:35.769Z,21.25
2022-12-18T06:21:02.814Z,20.90
2022-12-18T06:23:29.356Z,19.73
2022-12-18T06:25:55.987Z,20.70
2022-12-18T06:28:22.532Z,20.23
2022-12-18T06:30:49.573Z,18.42
2022-12-18T06:33:16.947Z,20.35
2022-12-18T06:35:43.480Z,19.63
2022-12-18T06:38:10.007Z,19.85
2022-12-18T06:40:38.998Z,20.80
2022-12-18T06:43:05.908Z,19.15
2022-12-18T06:45:32.538Z,19.35
2022-12-18T06:47:59.080Z,21.55
2022-12-18T06:50:25.789Z,21.92
2022-12-18T06:52:52.314Z,21.10
2022-12-18T06:55:19.110Z,19.65
2022-12-18T06:57:45.898Z,20.70
2022-12-18T07:00:12.745Z,20.60
2022-12-18T07:02:39.727Z,20.67
2022-12-18T07:05:10.680Z,20.27
2022-12-18T07:07:38.098Z,20.30
2022-12-18T07:10:05.184Z,18.80
2022-12-18T07:12:31.690Z,19.10
2022-12-18T07:14:58.224Z,17.25
2022-12-18T07:17:24.795Z,19.17
2022-12-18T07:19:51.331Z,18.50
2022-12-18T07:22:17.836Z,19.27
2022-12-18T07:24:44.375Z,19.23
2022-12-18T07:27:10.911Z,20.02
2022-12-18T07:29:37.398Z,19.13
2022-12-18T07:32:05.152Z,18.80
2022-12-18T07:34:31.672Z,18.92
2022-12-18T07:36:58.286Z,18.52
2022-12-18T07:39:24.817Z,18.08
2022-12-18T07:42:09.801Z,17.92
2022-12-18T07:44:37.244Z,16.88
2022-12-18T07:47:06.619Z,17.73
2022-12-18T07:49:37.490Z,18.33
2022-12-18T07:52:04.875Z,18.30
2022-12-18T07:54:31.497Z,18.70
2022-12-18T07:56:58.028Z,18.60
2022-12-18T07:59:24.545Z,18.35
2022-12-18T08:01:51.216Z,17.50
2022-12-18T08:04:18.042Z,18.13
2022-12-18T08:06:47.701Z,18.50
2022-12-18T08:09:14.797Z,22.63
2022-12-18T08:11:41.349Z,18.23
2022-12-18T08:14:08.161Z,19.15
2022-12-18T08:16:35.930Z,19.52
2022-12-18T08:19:03.339Z,17.83
2022-12-18T08:21:32.319Z,19.15
2022-12-18T08:24:01.150Z,17.83
2022-12-18T08:26:30.527Z,20.73
2022-12-18T08:28:59.130Z,20.67
2022-12-18T08:31:27.298Z,18.63
2022-12-18T08:33:55.336Z,21.05
2022-12-18T08:36:22.987Z,19.92
2022-12-18T08:38:50.419Z,22.10
2022-12-18T08:41:18.239Z,20.45
2022-12-18T08:44:03.538Z,20.83
2022-12-18T08:46:36.553Z,22.50
2022-12-18T08:49:07.381Z,20.35
2022-12-18T08:51:34.920Z,20.60
2022-12-18T08:54:02.068Z,20.98
2022-12-18T08:56:30.857Z,21.08
2022-12-18T08:58:57.959Z,21.77
2022-12-18T09:01:25.324Z,27.42
2022-12-18T09:03:52.457Z,25.63
2022-12-18T09:06:20.697Z,20.27
2022-12-18T09:08:47.465Z,19.52
2022-12-18T09:11:21.193Z,19.80
2022-12-18T09:16:14.561Z,17.73
2022-12-18T09:18:42.332Z,18.77
2022-12-18T09:21:18.115Z,22.30
2022-12-18T09:23:45.052Z,24.13
2022-12-18T09:26:11.630Z,22.08
2022-12-18T09:28:38.990Z,19.83
2022-12-18T09:31:08.784Z,28.15
2022-12-18T09:33:38.878Z,27.75
